sensor_id;sensor_type;location;lat;lon;timestamp;P1;durP1;ratioP1;P2;durP2;ratioP2
54983;SDS011;40884;53.562;9.940;2024-02-21T00:00:39;33.77;;;18.63;;
54983;SDS011;40884;53.562;9.940;2024-02-21T00:01:39;29.80;;;18.00;;
54983;SDS011;40884;53.562;9.940;2024-02-21T00:02:39;27.97;;;17.33;;
54983;SDS011;40884;53.562;9.940;2024-02-21T00:03:39;28.40;;;16.90;;
54983;SDS011;40884;53.562;9.940;2024-02-21T00:04:39;30.00;;;17.60;;
54983;SDS011;40884;53.562;9.940;2024-02-21T00:05:40;28.33;;;16.93;;
54983;SDS011;40884;53.562;9.940;2024-02-21T00:06:40;32.70;;;18.13;;
54983;SDS011;40884;53.562;9.940;2024-02-21T00:07:40;28.77;;;18.90;;
54983;SDS011;40884;53.562;9.940;2024-02-21T00:08:40;31.07;;;18.43;;
54983;SDS011;40884;53.562;9.940;2024-02-21T00:09:40;28.03;;;18.60;;
54983;SDS011;40884;53.562;9.940;2024-02-21T00:10:40;29.63;;;18.47;;
54983;SDS011;40884;53.562;9.940;2024-02-21T00:11:40;27.27;;;17.40;;
54983;SDS011;40884;53.562;9.940;2024-02-21T00:12:40;29.27;;;18.07;;
54983;SDS011;40884;53.562;9.940;2024-02-21T00:13:40;30.93;;;18.10;;
54983;SDS011;40884;53.562;9.940;2024-02-21T00:14:41;36.77;;;19.00;;
54983;SDS011;40884;53.562;9.940;2024-02-21T00:15:41;29.73;;;18.30;;
54983;SDS011;40884;53.562;9.940;2024-02-21T00:16:41;30.23;;;17.73;;
54983;SDS011;40884;53.562;9.940;2024-02-21T00:17:41;28.63;;;17.37;;
54983;SDS011;40884;53.562;9.940;2024-02-21T00:18:41;30.70;;;17.60;;
54983;SDS011;40884;53.562;9.940;2024-02-21T00:19:41;34.93;;;18.07;;
54983;SDS011;40884;53.562;9.940;2024-02-21T00:20:41;30.73;;;17.27;;
54983;SDS011;40884;53.562;9.940;2024-02-21T00:21:41;29.50;;;17.53;;
54983;SDS011;40884;53.562;9.940;2024-02-21T00:22:41;33.10;;;18.00;;
54983;SDS011;40884;53.562;9.940;2024-02-21T00:23:42;31.20;;;18.73;;
54983;SDS011;40884;53.562;9.940;2024-02-21T00:24:42;29.03;;;18.33;;
54983;SDS011;40884;53.562;9.940;2024-02-21T00:25:42;25.93;;;17.50;;
54983;SDS011;40884;53.562;9.940;2024-02-21T00:26:42;29.17;;;17.10;;
54983;SDS011;40884;53.562;9.940;2024-02-21T00:27:42;30.07;;;18.30;;
54983;SDS011;40884;53.562;9.940;2024-02-21T00:28:42;30.77;;;18.27;;
54983;SDS011;40884;53.562;9.940;2024-02-21T00:29:42;27.30;;;18.43;;
54983;SDS011;40884;53.562;9.940;2024-02-21T00:30:42;32.43;;;18.53;;
54983;SDS011;40884;53.562;9.940;2024-02-21T00:31:42;34.40;;;19.47;;
54983;SDS011;40884;53.562;9.940;2024-02-21T00:32:43;31.23;;;18.27;;
54983;SDS011;40884;53.562;9.940;2024-02-21T00:33:43;30.53;;;18.73;;
54983;SDS011;40884;53.562;9.940;2024-02-21T00:34:43;29.77;;;17.80;;
54983;SDS011;40884;53.562;9.940;2024-02-21T00:35:43;31.43;;;17.87;;
54983;SDS011;40884;53.562;9.940;2024-02-21T00:36:43;32.53;;;18.67;;
54983;SDS011;40884;53.562;9.940;2024-02-21T00:37:43;25.60;;;18.60;;
54983;SDS011;40884;53.562;9.940;2024-02-21T00:38:43;35.03;;;20.10;;
54983;SDS011;40884;53.562;9.940;2024-02-21T00:39:44;33.83;;;19.27;;
54983;SDS011;40884;53.562;9.940;2024-02-21T00:40:44;33.13;;;20.73;;
54983;SDS011;40884;53.562;9.940;2024-02-21T00:41:44;30.27;;;18.47;;
54983;SDS011;40884;53.562;9.940;2024-02-21T00:42:44;31.53;;;19.17;;
54983;SDS011;40884;53.562;9.940;2024-02-21T00:43:44;26.87;;;17.17;;
54983;SDS011;40884;53.562;9.940;2024-02-21T00:44:44;30.83;;;19.03;;
54983;SDS011;40884;53.562;9.940;2024-02-21T00:45:44;29.80;;;19.20;;
54983;SDS011;40884;53.562;9.940;2024-02-21T00:46:44;29.37;;;20.07;;
54983;SDS011;40884;53.562;9.940;2024-02-21T00:47:44;28.80;;;18.50;;
54983;SDS011;40884;53.562;9.940;2024-02-21T00:48:45;31.37;;;18.60;;
54983;SDS011;40884;53.562;9.940;2024-02-21T00:49:45;36.17;;;19.70;;
54983;SDS011;40884;53.562;9.940;2024-02-21T00:50:45;30.97;;;19.03;;
54983;SDS011;40884;53.562;9.940;2024-02-21T00:51:45;30.87;;;20.33;;
54983;SDS011;40884;53.562;9.940;2024-02-21T00:52:45;28.97;;;18.53;;
54983;SDS011;40884;53.562;9.940;2024-02-21T00:53:45;28.97;;;19.67;;
54983;SDS011;40884;53.562;9.940;2024-02-21T00:54:45;30.87;;;20.07;;
54983;SDS011;40884;53.562;9.940;2024-02-21T00:55:45;34.47;;;19.60;;
54983;SDS011;40884;53.562;9.940;2024-02-21T00:56:45;27.90;;;18.43;;
54983;SDS011;40884;53.562;9.940;2024-02-21T00:57:46;32.33;;;18.63;;
54983;SDS011;40884;53.562;9.940;2024-02-21T00:58:46;29.67;;;18.97;;
54983;SDS011;40884;53.562;9.940;2024-02-21T00:59:46;31.20;;;18.07;;
54983;SDS011;40884;53.562;9.940;2024-02-21T01:00:46;27.63;;;17.77;;
54983;SDS011;40884;53.562;9.940;2024-02-21T01:01:46;30.47;;;17.67;;
54983;SDS011;40884;53.562;9.940;2024-02-21T01:02:46;28.90;;;17.90;;
54983;SDS011;40884;53.562;9.940;2024-02-21T01:03:46;30.23;;;19.23;;
54983;SDS011;40884;53.562;9.940;2024-02-21T01:04:49;33.63;;;20.20;;
54983;SDS011;40884;53.562;9.940;2024-02-21T01:05:49;32.90;;;21.27;;
54983;SDS011;40884;53.562;9.940;2024-02-21T01:06:50;30.87;;;18.27;;
54983;SDS011;40884;53.562;9.940;2024-02-21T01:07:50;32.67;;;20.10;;
54983;SDS011;40884;53.562;9.940;2024-02-21T01:08:50;32.07;;;19.83;;
54983;SDS011;40884;53.562;9.940;2024-02-21T01:09:50;33.70;;;20.23;;
54983;SDS011;40884;53.562;9.940;2024-02-21T01:10:50;30.53;;;19.00;;
54983;SDS011;40884;53.562;9.940;2024-02-21T01:11:50;27.33;;;18.57;;
54983;SDS011;40884;53.562;9.940;2024-02-21T01:12:50;30.33;;;17.80;;
54983;SDS011;40884;53.562;9.940;2024-02-21T01:13:50;25.37;;;17.70;;
54983;SDS011;40884;53.562;9.940;2024-02-21T01:14:50;29.63;;;20.33;;
54983;SDS011;40884;53.562;9.940;2024-02-21T01:15:51;27.90;;;18.00;;
54983;SDS011;40884;53.562;9.940;2024-02-21T01:16:51;32.87;;;19.40;;
54983;SDS011;40884;53.562;9.940;2024-02-21T01:17:51;32.27;;;21.40;;
54983;SDS011;40884;53.562;9.940;2024-02-21T01:18:51;31.80;;;20.10;;
54983;SDS011;40884;53.562;9.940;2024-02-21T01:19:51;33.20;;;20.10;;
54983;SDS011;40884;53.562;9.940;2024-02-21T01:20:51;28.60;;;18.87;;
54983;SDS011;40884;53.562;9.940;2024-02-21T01:21:51;26.27;;;18.60;;
54983;SDS011;40884;53.562;9.940;2024-02-21T01:22:52;29.73;;;19.03;;
54983;SDS011;40884;53.562;9.940;2024-02-21T01:23:52;27.73;;;18.13;;
54983;SDS011;40884;53.562;9.940;2024-02-21T01:24:52;27.03;;;18.37;;
54983;SDS011;40884;53.562;9.940;2024-02-21T01:25:52;29.63;;;18.33;;
54983;SDS011;40884;53.562;9.940;2024-02-21T01:26:52;27.57;;;19.40;;
54983;SDS011;40884;53.562;9.940;2024-02-21T01:27:52;34.53;;;21.10;;
54983;SDS011;40884;53.562;9.940;2024-02-21T01:28:52;28.87;;;18.33;;
54983;SDS011;40884;53.562;9.940;2024-02-21T01:29:52;28.53;;;19.10;;
54983;SDS011;40884;53.562;9.940;2024-02-21T01:30:53;30.47;;;19.63;;
54983;SDS011;40884;53.562;9.940;2024-02-21T01:31:53;28.73;;;19.13;;
54983;SDS011;40884;53.562;9.940;2024-02-21T01:32:53;28.37;;;19.37;;
54983;SDS011;40884;53.562;9.940;2024-02-21T01:33:53;27.43;;;19.63;;
54983;SDS011;40884;53.562;9.940;2024-02-21T01:34:53;30.90;;;19.37;;
54983;SDS011;40884;53.562;9.940;2024-02-21T01:35:53;33.43;;;19.87;;
54983;SDS011;40884;53.562;9.940;2024-02-21T01:36:53;29.87;;;18.67;;
54983;SDS011;40884;53.562;9.940;2024-02-21T01:37:53;29.10;;;19.43;;
54983;SDS011;40884;53.562;9.940;2024-02-21T01:38:53;27.83;;;18.10;;
54983;SDS011;40884;53.562;9.940;2024-02-21T01:39:54;25.70;;;16.83;;
54983;SDS011;40884;53.562;9.940;2024-02-21T01:40:54;31.87;;;19.60;;
54983;SDS011;40884;53.562;9.940;2024-02-21T01:41:54;26.50;;;18.83;;
54983;SDS011;40884;53.562;9.940;2024-02-21T01:42:55;29.47;;;20.67;;
54983;SDS011;40884;53.562;9.940;2024-02-21T01:43:55;26.60;;;18.00;;
54983;SDS011;40884;53.562;9.940;2024-02-21T01:44:55;27.17;;;18.47;;
54983;SDS011;40884;53.562;9.940;2024-02-21T01:45:55;28.03;;;19.37;;
54983;SDS011;40884;53.562;9.940;2024-02-21T01:46:56;26.90;;;19.40;;
54983;SDS011;40884;53.562;9.940;2024-02-21T01:47:56;27.03;;;20.17;;
54983;SDS011;40884;53.562;9.940;2024-02-21T01:48:57;27.97;;;20.23;;
54983;SDS011;40884;53.562;9.940;2024-02-21T01:49:57;32.20;;;21.77;;
54983;SDS011;40884;53.562;9.940;2024-02-21T01:50:57;37.07;;;21.53;;
54983;SDS011;40884;53.562;9.940;2024-02-21T01:51:57;32.10;;;23.43;;
54983;SDS011;40884;53.562;9.940;2024-02-21T01:52:57;31.30;;;22.10;;
54983;SDS011;40884;53.562;9.940;2024-02-21T01:53:57;31.57;;;21.43;;
54983;SDS011;40884;53.562;9.940;2024-02-21T01:54:58;32.37;;;21.73;;
54983;SDS011;40884;53.562;9.940;2024-02-21T01:55:58;30.80;;;22.27;;
54983;SDS011;40884;53.562;9.940;2024-02-21T01:56:58;29.47;;;19.60;;
54983;SDS011;40884;53.562;9.940;2024-02-21T01:57:58;32.97;;;22.43;;
54983;SDS011;40884;53.562;9.940;2024-02-21T01:58:58;30.03;;;21.17;;
54983;SDS011;40884;53.562;9.940;2024-02-21T01:59:59;32.43;;;23.20;;
54983;SDS011;40884;53.562;9.940;2024-02-21T02:00:59;32.50;;;22.77;;
54983;SDS011;40884;53.562;9.940;2024-02-21T02:01:59;34.73;;;24.07;;
54983;SDS011;40884;53.562;9.940;2024-02-21T02:03:00;30.77;;;23.27;;
54983;SDS011;40884;53.562;9.940;2024-02-21T02:04:00;34.53;;;22.73;;
54983;SDS011;40884;53.562;9.940;2024-02-21T02:05:00;29.63;;;20.83;;
54983;SDS011;40884;53.562;9.940;2024-02-21T02:06:01;31.33;;;22.10;;
54983;SDS011;40884;53.562;9.940;2024-02-21T02:07:02;30.20;;;21.63;;
54983;SDS011;40884;53.562;9.940;2024-02-21T02:08:02;31.27;;;22.40;;
54983;SDS011;40884;53.562;9.940;2024-02-21T02:09:02;33.83;;;22.47;;
54983;SDS011;40884;53.562;9.940;2024-02-21T02:10:02;32.67;;;24.27;;
54983;SDS011;40884;53.562;9.940;2024-02-21T02:11:03;33.17;;;24.43;;
54983;SDS011;40884;53.562;9.940;2024-02-21T02:12:03;37.17;;;24.10;;
54983;SDS011;40884;53.562;9.940;2024-02-21T02:13:03;37.07;;;25.03;;
54983;SDS011;40884;53.562;9.940;2024-02-21T02:14:04;34.77;;;25.77;;
54983;SDS011;40884;53.562;9.940;2024-02-21T02:15:04;38.77;;;27.03;;
54983;SDS011;40884;53.562;9.940;2024-02-21T02:16:04;33.77;;;25.27;;
54983;SDS011;40884;53.562;9.940;2024-02-21T02:17:04;37.40;;;24.57;;
54983;SDS011;40884;53.562;9.940;2024-02-21T02:18:04;32.63;;;24.10;;
54983;SDS011;40884;53.562;9.940;2024-02-21T02:19:05;34.30;;;26.80;;
54983;SDS011;40884;53.562;9.940;2024-02-21T02:20:05;36.37;;;25.20;;
54983;SDS011;40884;53.562;9.940;2024-02-21T02:21:06;36.80;;;25.57;;
54983;SDS011;40884;53.562;9.940;2024-02-21T02:22:13;31.80;;;23.90;;
54983;SDS011;40884;53.562;9.940;2024-02-21T02:24:22;44.00;;;25.97;;
54983;SDS011;40884;53.562;9.940;2024-02-21T02:25:23;40.80;;;26.43;;
54983;SDS011;40884;53.562;9.940;2024-02-21T02:26:23;36.50;;;26.47;;
54983;SDS011;40884;53.562;9.940;2024-02-21T02:27:23;38.37;;;27.73;;
54983;SDS011;40884;53.562;9.940;2024-02-21T02:28:24;36.67;;;26.27;;
54983;SDS011;40884;53.562;9.940;2024-02-21T02:29:24;47.40;;;28.30;;
54983;SDS011;40884;53.562;9.940;2024-02-21T02:30:24;37.63;;;24.73;;
54983;SDS011;40884;53.562;9.940;2024-02-21T02:31:24;43.97;;;26.90;;
54983;SDS011;40884;53.562;9.940;2024-02-21T02:32:24;36.63;;;24.73;;
54983;SDS011;40884;53.562;9.940;2024-02-21T02:33:24;35.27;;;24.87;;
54983;SDS011;40884;53.562;9.940;2024-02-21T02:34:24;37.30;;;25.23;;
54983;SDS011;40884;53.562;9.940;2024-02-21T02:35:25;41.93;;;27.63;;
54983;SDS011;40884;53.562;9.940;2024-02-21T02:36:25;43.87;;;28.90;;
54983;SDS011;40884;53.562;9.940;2024-02-21T02:37:25;35.40;;;24.47;;
54983;SDS011;40884;53.562;9.940;2024-02-21T02:38:25;39.50;;;26.20;;
54983;SDS011;40884;53.562;9.940;2024-02-21T02:39:25;37.57;;;26.40;;
54983;SDS011;40884;53.562;9.940;2024-02-21T02:40:25;37.27;;;27.40;;
54983;SDS011;40884;53.562;9.940;2024-02-21T02:41:25;37.63;;;28.10;;
54983;SDS011;40884;53.562;9.940;2024-02-21T02:42:25;41.37;;;28.37;;
54983;SDS011;40884;53.562;9.940;2024-02-21T02:43:25;42.00;;;26.00;;
54983;SDS011;40884;53.562;9.940;2024-02-21T02:44:25;39.67;;;27.60;;
54983;SDS011;40884;53.562;9.940;2024-02-21T02:45:26;37.73;;;26.23;;
54983;SDS011;40884;53.562;9.940;2024-02-21T02:46:26;37.97;;;26.23;;
54983;SDS011;40884;53.562;9.940;2024-02-21T02:47:26;42.57;;;27.67;;
54983;SDS011;40884;53.562;9.940;2024-02-21T02:48:26;38.77;;;25.33;;
54983;SDS011;40884;53.562;9.940;2024-02-21T02:49:26;34.50;;;25.07;;
54983;SDS011;40884;53.562;9.940;2024-02-21T02:50:26;32.97;;;24.07;;
54983;SDS011;40884;53.562;9.940;2024-02-21T02:51:27;36.03;;;24.13;;
54983;SDS011;40884;53.562;9.940;2024-02-21T02:52:27;41.43;;;26.90;;
54983;SDS011;40884;53.562;9.940;2024-02-21T02:53:27;35.00;;;25.27;;
54983;SDS011;40884;53.562;9.940;2024-02-21T02:54:27;35.33;;;24.37;;
54983;SDS011;40884;53.562;9.940;2024-02-21T02:55:27;35.90;;;23.90;;
54983;SDS011;40884;53.562;9.940;2024-02-21T02:56:27;34.57;;;24.60;;
54983;SDS011;40884;53.562;9.940;2024-02-21T02:57:27;38.20;;;25.50;;
54983;SDS011;40884;53.562;9.940;2024-02-21T02:58:28;33.73;;;23.77;;
54983;SDS011;40884;53.562;9.940;2024-02-21T02:59:28;32.13;;;24.40;;
54983;SDS011;40884;53.562;9.940;2024-02-21T03:00:28;35.37;;;24.90;;
54983;SDS011;40884;53.562;9.940;2024-02-21T03:01:28;33.60;;;23.20;;
54983;SDS011;40884;53.562;9.940;2024-02-21T03:02:28;35.00;;;23.97;;
54983;SDS011;40884;53.562;9.940;2024-02-21T03:03:28;39.63;;;26.30;;
54983;SDS011;40884;53.562;9.940;2024-02-21T03:04:28;35.93;;;25.13;;
54983;SDS011;40884;53.562;9.940;2024-02-21T03:05:28;38.87;;;25.03;;
54983;SDS011;40884;53.562;9.940;2024-02-21T03:06:28;31.40;;;23.13;;
54983;SDS011;40884;53.562;9.940;2024-02-21T03:07:29;34.27;;;23.27;;
54983;SDS011;40884;53.562;9.940;2024-02-21T03:08:29;35.80;;;23.30;;
54983;SDS011;40884;53.562;9.940;2024-02-21T03:09:29;36.13;;;24.13;;
54983;SDS011;40884;53.562;9.940;2024-02-21T03:10:29;33.93;;;23.60;;
54983;SDS011;40884;53.562;9.940;2024-02-21T03:11:29;35.60;;;23.47;;
54983;SDS011;40884;53.562;9.940;2024-02-21T03:12:29;31.23;;;21.90;;
54983;SDS011;40884;53.562;9.940;2024-02-21T03:13:29;34.93;;;23.67;;
54983;SDS011;40884;53.562;9.940;2024-02-21T03:14:29;32.53;;;23.43;;
54983;SDS011;40884;53.562;9.940;2024-02-21T03:15:30;32.47;;;23.60;;
54983;SDS011;40884;53.562;9.940;2024-02-21T03:16:30;34.00;;;22.13;;
54983;SDS011;40884;53.562;9.940;2024-02-21T03:17:30;36.10;;;22.50;;
54983;SDS011;40884;53.562;9.940;2024-02-21T03:18:30;30.93;;;21.73;;
54983;SDS011;40884;53.562;9.940;2024-02-21T03:19:31;33.13;;;23.43;;
54983;SDS011;40884;53.562;9.940;2024-02-21T03:20:31;35.97;;;23.53;;
54983;SDS011;40884;53.562;9.940;2024-02-21T03:21:31;35.67;;;23.47;;
54983;SDS011;40884;53.562;9.940;2024-02-21T03:22:31;29.20;;;23.00;;
54983;SDS011;40884;53.562;9.940;2024-02-21T03:23:31;34.63;;;23.77;;
54983;SDS011;40884;53.562;9.940;2024-02-21T03:24:31;31.43;;;22.10;;
54983;SDS011;40884;53.562;9.940;2024-02-21T03:25:31;38.57;;;25.23;;
54983;SDS011;40884;53.562;9.940;2024-02-21T03:26:31;34.97;;;23.43;;
54983;SDS011;40884;53.562;9.940;2024-02-21T03:27:32;31.40;;;22.20;;
54983;SDS011;40884;53.562;9.940;2024-02-21T03:28:32;35.10;;;24.00;;
54983;SDS011;40884;53.562;9.940;2024-02-21T03:29:32;35.87;;;22.03;;
54983;SDS011;40884;53.562;9.940;2024-02-21T03:30:32;31.97;;;23.57;;
54983;SDS011;40884;53.562;9.940;2024-02-21T03:31:32;31.13;;;22.33;;
54983;SDS011;40884;53.562;9.940;2024-02-21T03:32:32;32.77;;;23.50;;
54983;SDS011;40884;53.562;9.940;2024-02-21T03:33:32;36.20;;;23.00;;
54983;SDS011;40884;53.562;9.940;2024-02-21T03:34:32;36.97;;;25.07;;
54983;SDS011;40884;53.562;9.940;2024-02-21T03:35:32;33.83;;;23.03;;
54983;SDS011;40884;53.562;9.940;2024-02-21T03:36:33;32.40;;;22.27;;
54983;SDS011;40884;53.562;9.940;2024-02-21T03:37:33;35.00;;;23.97;;
54983;SDS011;40884;53.562;9.940;2024-02-21T03:38:33;31.60;;;22.37;;
54983;SDS011;40884;53.562;9.940;2024-02-21T03:39:33;31.20;;;23.33;;
54983;SDS011;40884;53.562;9.940;2024-02-21T03:40:33;30.37;;;22.17;;
54983;SDS011;40884;53.562;9.940;2024-02-21T03:41:33;36.73;;;23.20;;
54983;SDS011;40884;53.562;9.940;2024-02-21T03:42:34;31.47;;;21.13;;
54983;SDS011;40884;53.562;9.940;2024-02-21T03:43:34;34.30;;;22.73;;
54983;SDS011;40884;53.562;9.940;2024-02-21T03:44:34;34.13;;;23.53;;
54983;SDS011;40884;53.562;9.940;2024-02-21T03:45:34;30.87;;;21.37;;
54983;SDS011;40884;53.562;9.940;2024-02-21T03:46:34;25.53;;;20.37;;
54983;SDS011;40884;53.562;9.940;2024-02-21T03:47:34;31.07;;;19.90;;
54983;SDS011;40884;53.562;9.940;2024-02-21T03:48:35;29.27;;;21.33;;
54983;SDS011;40884;53.562;9.940;2024-02-21T03:49:35;34.93;;;23.53;;
54983;SDS011;40884;53.562;9.940;2024-02-21T03:50:36;29.30;;;19.83;;
54983;SDS011;40884;53.562;9.940;2024-02-21T03:51:36;33.50;;;22.13;;
54983;SDS011;40884;53.562;9.940;2024-02-21T03:52:36;30.73;;;21.30;;
54983;SDS011;40884;53.562;9.940;2024-02-21T03:53:36;26.67;;;19.77;;
54983;SDS011;40884;53.562;9.940;2024-02-21T03:54:36;28.70;;;19.40;;
54983;SDS011;40884;53.562;9.940;2024-02-21T03:55:36;35.13;;;23.40;;
54983;SDS011;40884;53.562;9.940;2024-02-21T03:56:37;30.83;;;22.93;;
54983;SDS011;40884;53.562;9.940;2024-02-21T03:57:37;33.77;;;23.47;;
54983;SDS011;40884;53.562;9.940;2024-02-21T03:58:37;35.73;;;21.83;;
54983;SDS011;40884;53.562;9.940;2024-02-21T03:59:37;33.23;;;20.70;;
54983;SDS011;40884;53.562;9.940;2024-02-21T04:00:37;41.50;;;22.57;;
54983;SDS011;40884;53.562;9.940;2024-02-21T04:01:37;27.97;;;20.87;;
54983;SDS011;40884;53.562;9.940;2024-02-21T04:02:37;25.63;;;19.37;;
54983;SDS011;40884;53.562;9.940;2024-02-21T04:03:37;34.17;;;22.07;;
54983;SDS011;40884;53.562;9.940;2024-02-21T04:04:38;27.27;;;20.57;;
54983;SDS011;40884;53.562;9.940;2024-02-21T04:05:38;29.70;;;20.97;;
54983;SDS011;40884;53.562;9.940;2024-02-21T04:06:46;33.27;;;21.70;;
54983;SDS011;40884;53.562;9.940;2024-02-21T04:07:46;32.43;;;22.43;;
54983;SDS011;40884;53.562;9.940;2024-02-21T04:08:46;27.47;;;19.77;;
54983;SDS011;40884;53.562;9.940;2024-02-21T04:09:46;30.13;;;20.87;;
54983;SDS011;40884;53.562;9.940;2024-02-21T04:10:46;32.20;;;22.27;;
54983;SDS011;40884;53.562;9.940;2024-02-21T04:11:47;32.87;;;21.67;;
54983;SDS011;40884;53.562;9.940;2024-02-21T04:12:47;32.70;;;23.33;;
54983;SDS011;40884;53.562;9.940;2024-02-21T04:13:47;31.87;;;22.23;;
54983;SDS011;40884;53.562;9.940;2024-02-21T04:14:47;30.27;;;21.17;;
54983;SDS011;40884;53.562;9.940;2024-02-21T04:15:47;32.73;;;21.23;;
54983;SDS011;40884;53.562;9.940;2024-02-21T04:16:47;29.50;;;20.70;;
54983;SDS011;40884;53.562;9.940;2024-02-21T04:17:47;32.23;;;22.37;;
54983;SDS011;40884;53.562;9.940;2024-02-21T04:18:47;30.97;;;21.80;;
54983;SDS011;40884;53.562;9.940;2024-02-21T04:19:48;29.57;;;21.03;;
54983;SDS011;40884;53.562;9.940;2024-02-21T04:20:48;35.30;;;23.50;;
54983;SDS011;40884;53.562;9.940;2024-02-21T04:21:48;35.70;;;21.80;;
54983;SDS011;40884;53.562;9.940;2024-02-21T04:22:48;25.33;;;18.97;;
54983;SDS011;40884;53.562;9.940;2024-02-21T04:23:48;25.43;;;17.83;;
54983;SDS011;40884;53.562;9.940;2024-02-21T04:24:48;26.77;;;19.60;;
54983;SDS011;40884;53.562;9.940;2024-02-21T04:25:48;27.17;;;20.10;;
54983;SDS011;40884;53.562;9.940;2024-02-21T04:26:48;33.03;;;21.80;;
54983;SDS011;40884;53.562;9.940;2024-02-21T04:27:49;31.73;;;22.00;;
54983;SDS011;40884;53.562;9.940;2024-02-21T04:28:49;34.60;;;21.67;;
54983;SDS011;40884;53.562;9.940;2024-02-21T04:29:49;31.47;;;21.40;;
54983;SDS011;40884;53.562;9.940;2024-02-21T04:30:49;38.00;;;22.30;;
54983;SDS011;40884;53.562;9.940;2024-02-21T04:31:49;30.10;;;19.93;;
54983;SDS011;40884;53.562;9.940;2024-02-21T04:32:49;31.63;;;20.83;;
54983;SDS011;40884;53.562;9.940;2024-02-21T04:33:49;31.57;;;20.90;;
54983;SDS011;40884;53.562;9.940;2024-02-21T04:34:49;34.03;;;21.63;;
54983;SDS011;40884;53.562;9.940;2024-02-21T04:35:49;30.23;;;18.77;;
54983;SDS011;40884;53.562;9.940;2024-02-21T04:36:50;27.03;;;20.77;;
54983;SDS011;40884;53.562;9.940;2024-02-21T04:37:50;29.73;;;20.57;;
54983;SDS011;40884;53.562;9.940;2024-02-21T04:38:50;28.13;;;20.83;;
54983;SDS011;40884;53.562;9.940;2024-02-21T04:39:50;29.33;;;20.67;;
54983;SDS011;40884;53.562;9.940;2024-02-21T04:40:50;29.03;;;19.97;;
54983;SDS011;40884;53.562;9.940;2024-02-21T04:41:50;29.10;;;20.63;;
54983;SDS011;40884;53.562;9.940;2024-02-21T04:42:50;25.10;;;17.73;;
54983;SDS011;40884;53.562;9.940;2024-02-21T04:43:50;24.00;;;18.63;;
54983;SDS011;40884;53.562;9.940;2024-02-21T04:44:51;25.77;;;17.63;;
54983;SDS011;40884;53.562;9.940;2024-02-21T04:45:51;24.33;;;17.97;;
54983;SDS011;40884;53.562;9.940;2024-02-21T04:46:51;26.77;;;19.03;;
54983;SDS011;40884;53.562;9.940;2024-02-21T04:47:51;35.33;;;20.90;;
54983;SDS011;40884;53.562;9.940;2024-02-21T04:48:51;23.63;;;16.30;;
54983;SDS011;40884;53.562;9.940;2024-02-21T04:49:51;23.57;;;17.90;;
54983;SDS011;40884;53.562;9.940;2024-02-21T04:50:51;24.30;;;18.27;;
54983;SDS011;40884;53.562;9.940;2024-02-21T04:51:51;24.43;;;17.30;;
54983;SDS011;40884;53.562;9.940;2024-02-21T04:52:52;29.77;;;20.43;;
54983;SDS011;40884;53.562;9.940;2024-02-21T04:53:52;25.40;;;17.80;;
54983;SDS011;40884;53.562;9.940;2024-02-21T04:54:52;24.20;;;17.80;;
54983;SDS011;40884;53.562;9.940;2024-02-21T04:55:52;26.37;;;18.37;;
54983;SDS011;40884;53.562;9.940;2024-02-21T04:56:52;19.80;;;16.23;;
54983;SDS011;40884;53.562;9.940;2024-02-21T04:57:52;19.43;;;15.33;;
54983;SDS011;40884;53.562;9.940;2024-02-21T04:58:52;24.83;;;17.57;;
54983;SDS011;40884;53.562;9.940;2024-02-21T04:59:52;24.03;;;17.27;;
54983;SDS011;40884;53.562;9.940;2024-02-21T05:00:52;21.97;;;16.13;;
54983;SDS011;40884;53.562;9.940;2024-02-21T05:01:53;25.80;;;17.87;;
54983;SDS011;40884;53.562;9.940;2024-02-21T05:02:53;22.80;;;16.67;;
54983;SDS011;40884;53.562;9.940;2024-02-21T05:03:53;21.30;;;15.27;;
54983;SDS011;40884;53.562;9.940;2024-02-21T05:04:53;21.17;;;15.80;;
54983;SDS011;40884;53.562;9.940;2024-02-21T05:05:53;21.97;;;16.87;;
54983;SDS011;40884;53.562;9.940;2024-02-21T05:06:53;22.03;;;16.03;;
54983;SDS011;40884;53.562;9.940;2024-02-21T05:07:53;21.80;;;15.93;;
54983;SDS011;40884;53.562;9.940;2024-02-21T05:08:54;18.70;;;15.50;;
54983;SDS011;40884;53.562;9.940;2024-02-21T05:09:54;21.37;;;15.93;;
54983;SDS011;40884;53.562;9.940;2024-02-21T05:10:54;18.57;;;14.87;;
54983;SDS011;40884;53.562;9.940;2024-02-21T05:11:54;18.47;;;14.27;;
54983;SDS011;40884;53.562;9.940;2024-02-21T05:12:54;19.53;;;16.27;;
54983;SDS011;40884;53.562;9.940;2024-02-21T05:13:54;20.17;;;15.10;;
54983;SDS011;40884;53.562;9.940;2024-02-21T05:14:54;21.57;;;16.27;;
54983;SDS011;40884;53.562;9.940;2024-02-21T05:15:54;18.97;;;15.20;;
54983;SDS011;40884;53.562;9.940;2024-02-21T05:16:55;21.60;;;14.90;;
54983;SDS011;40884;53.562;9.940;2024-02-21T05:17:55;19.27;;;14.20;;
54983;SDS011;40884;53.562;9.940;2024-02-21T05:18:55;20.93;;;14.53;;
54983;SDS011;40884;53.562;9.940;2024-02-21T05:19:55;20.23;;;14.57;;
54983;SDS011;40884;53.562;9.940;2024-02-21T05:20:55;20.00;;;15.03;;
54983;SDS011;40884;53.562;9.940;2024-02-21T05:21:55;22.37;;;15.57;;
54983;SDS011;40884;53.562;9.940;2024-02-21T05:22:55;20.73;;;15.27;;
54983;SDS011;40884;53.562;9.940;2024-02-21T05:23:56;16.17;;;12.60;;
54983;SDS011;40884;53.562;9.940;2024-02-21T05:24:56;20.70;;;14.17;;
54983;SDS011;40884;53.562;9.940;2024-02-21T05:25:56;17.67;;;14.07;;
54983;SDS011;40884;53.562;9.940;2024-02-21T05:26:56;19.13;;;13.53;;
54983;SDS011;40884;53.562;9.940;2024-02-21T05:27:56;16.00;;;13.67;;
54983;SDS011;40884;53.562;9.940;2024-02-21T05:28:56;19.83;;;14.77;;
54983;SDS011;40884;53.562;9.940;2024-02-21T05:29:56;17.23;;;13.53;;
54983;SDS011;40884;53.562;9.940;2024-02-21T05:30:56;16.30;;;13.17;;
54983;SDS011;40884;53.562;9.940;2024-02-21T05:31:57;16.93;;;13.30;;
54983;SDS011;40884;53.562;9.940;2024-02-21T05:32:57;15.47;;;11.90;;
54983;SDS011;40884;53.562;9.940;2024-02-21T05:33:57;15.57;;;12.70;;
54983;SDS011;40884;53.562;9.940;2024-02-21T05:34:57;18.33;;;13.20;;
54983;SDS011;40884;53.562;9.940;2024-02-21T05:35:57;13.97;;;10.63;;
54983;SDS011;40884;53.562;9.940;2024-02-21T05:36:57;14.73;;;11.70;;
54983;SDS011;40884;53.562;9.940;2024-02-21T05:37:57;12.77;;;10.23;;
54983;SDS011;40884;53.562;9.940;2024-02-21T05:38:57;13.10;;;11.23;;
54983;SDS011;40884;53.562;9.940;2024-02-21T05:39:57;13.77;;;11.40;;
54983;SDS011;40884;53.562;9.940;2024-02-21T05:40:58;16.30;;;12.27;;
54983;SDS011;40884;53.562;9.940;2024-02-21T05:41:58;14.33;;;12.03;;
54983;SDS011;40884;53.562;9.940;2024-02-21T05:42:58;17.73;;;11.63;;
54983;SDS011;40884;53.562;9.940;2024-02-21T05:43:58;15.67;;;11.90;;
54983;SDS011;40884;53.562;9.940;2024-02-21T05:44:58;17.03;;;11.50;;
54983;SDS011;40884;53.562;9.940;2024-02-21T05:45:58;13.03;;;9.90;;
54983;SDS011;40884;53.562;9.940;2024-02-21T05:46:58;10.50;;;9.10;;
54983;SDS011;40884;53.562;9.940;2024-02-21T05:47:58;12.37;;;9.80;;
54983;SDS011;40884;53.562;9.940;2024-02-21T05:48:58;13.20;;;9.87;;
54983;SDS011;40884;53.562;9.940;2024-02-21T05:49:59;12.83;;;9.03;;
54983;SDS011;40884;53.562;9.940;2024-02-21T05:51:01;10.97;;;9.47;;
54983;SDS011;40884;53.562;9.940;2024-02-21T05:52:01;13.40;;;9.63;;
54983;SDS011;40884;53.562;9.940;2024-02-21T05:53:01;10.57;;;8.47;;